createdAt,value
2019-05-01T00:00:44.311Z,16.50
2019-05-01T00:03:28.310Z,16.43
2019-05-01T00:05:59.699Z,16.40
2019-05-01T00:08:30.094Z,16.83
2019-05-01T00:11:00.538Z,15.13
2019-05-01T00:13:31.109Z,16.77
2019-05-01T00:16:01.538Z,15.40
2019-05-01T00:18:31.959Z,15.67
2019-05-01T00:21:02.427Z,16.67
2019-05-01T00:23:32.829Z,13.13
2019-05-01T00:26:03.275Z,14.33
2019-05-01T00:28:33.711Z,14.57
2019-05-01T00:31:04.149Z,13.73
2019-05-01T00:33:34.755Z,13.87
2019-05-01T00:36:05.192Z,13.87
2019-05-01T00:38:35.573Z,13.60
2019-05-01T00:41:06.006Z,15.43
2019-05-01T00:43:36.405Z,15.27
2019-05-01T00:46:06.801Z,14.87
2019-05-01T00:48:37.247Z,15.33
2019-05-01T00:51:07.861Z,14.90
2019-05-01T00:53:38.286Z,14.47
2019-05-01T00:56:21.649Z,13.53
2019-05-01T00:59:10.988Z,13.57
2019-05-01T01:02:00.837Z,13.03
2019-05-01T01:04:31.440Z,13.73
2019-05-01T01:07:01.776Z,13.43
2019-05-01T01:09:32.191Z,13.60
2019-05-01T01:12:02.524Z,12.77
2019-05-01T01:14:32.940Z,13.67
2019-05-01T01:17:03.322Z,12.47
2019-05-01T01:19:33.813Z,12.50
2019-05-01T01:22:04.175Z,12.83
2019-05-01T01:24:34.706Z,11.70
2019-05-01T01:27:05.074Z,11.80
2019-05-01T01:29:35.709Z,13.20
2019-05-01T01:32:06.335Z,12.70
2019-05-01T01:34:36.718Z,11.60
2019-05-01T01:37:08.368Z,12.07
2019-05-01T01:39:38.743Z,12.43
2019-05-01T01:42:09.952Z,11.77
2019-05-01T01:45:14.692Z,11.90
2019-05-01T01:48:02.862Z,12.07
2019-05-01T01:50:33.490Z,12.90
2019-05-01T01:53:04.006Z,11.50
2019-05-01T01:55:35.527Z,11.17
2019-05-01T01:58:06.596Z,13.50
2019-05-01T02:01:08.751Z,14.93
2019-05-01T02:03:30.985Z,13.03
2019-05-01T02:06:01.677Z,13.47
2019-05-01T02:08:32.112Z,13.10
2019-05-01T02:11:02.533Z,12.37
2019-05-01T02:13:32.872Z,11.90
2019-05-01T02:16:03.285Z,12.07
2019-05-01T02:18:33.830Z,12.37
2019-05-01T02:21:04.253Z,13.60
2019-05-01T02:23:34.702Z,13.27
2019-05-01T02:26:06.361Z,13.30
2019-05-01T02:28:45.707Z,12.17
2019-05-01T02:31:29.220Z,11.70
2019-05-01T02:33:56.859Z,12.43
2019-05-01T02:36:29.025Z,13.33
2019-05-01T02:39:01.266Z,13.00
2019-05-01T02:41:41.542Z,14.00
2019-05-01T02:44:20.008Z,13.97
2019-05-01T02:46:52.005Z,12.83
2019-05-01T02:49:36.148Z,12.83
2019-05-01T02:52:08.422Z,15.00
2019-05-01T02:54:41.441Z,14.87
2019-05-01T02:57:16.048Z,13.73
2019-05-01T02:59:49.347Z,13.03
2019-05-01T03:02:22.675Z,13.70
2019-05-01T03:04:54.400Z,13.20
2019-05-01T03:07:27.590Z,13.37
2019-05-01T03:09:58.457Z,13.57
2019-05-01T03:12:31.031Z,11.20
2019-05-01T03:15:03.965Z,12.47
2019-05-01T03:17:45.023Z,12.17
2019-05-01T03:20:33.845Z,12.30
2019-05-01T03:23:17.365Z,12.17
2019-05-01T03:25:49.183Z,12.00
2019-05-01T03:28:20.003Z,11.93
2019-05-01T03:30:51.034Z,11.10
2019-05-01T03:33:21.728Z,12.13
2019-05-01T03:35:52.261Z,11.57
2019-05-01T03:38:23.229Z,11.67
2019-05-01T03:40:53.953Z,12.37
2019-05-01T03:43:25.993Z,12.60
2019-05-01T03:45:57.209Z,12.73
2019-05-01T03:48:27.877Z,11.63
2019-05-01T03:50:59.122Z,12.23
2019-05-01T03:53:30.025Z,12.20
2019-05-01T03:56:02.323Z,19.23
2019-05-01T03:58:33.469Z,11.07
2019-05-01T04:01:13.555Z,11.77
2019-05-01T04:03:46.814Z,11.43
2019-05-01T04:06:17.181Z,12.27
2019-05-01T04:08:47.619Z,12.47
2019-05-01T04:11:18.718Z,11.53
2019-05-01T04:13:49.163Z,12.10
2019-05-01T04:16:20.736Z,12.57
2019-05-01T04:18:51.493Z,11.83
2019-05-01T04:21:25.151Z,11.73
2019-05-01T04:23:55.995Z,10.77
2019-05-01T04:26:27.108Z,10.80
2019-05-01T04:29:04.818Z,10.33
2019-05-01T04:32:00.501Z,10.63
2019-05-01T04:34:42.952Z,10.63
2019-05-01T04:37:15.053Z,10.77
2019-05-01T04:39:45.436Z,9.37
2019-05-01T04:42:16.367Z,10.57
2019-05-01T04:44:46.861Z,11.47
2019-05-01T04:47:18.050Z,10.37
2019-05-01T04:49:48.983Z,11.10
2019-05-01T04:52:19.403Z,11.93
2019-05-01T04:54:50.039Z,10.17
2019-05-01T04:57:21.052Z,9.93
2019-05-01T04:59:51.709Z,9.27
2019-05-01T05:02:32.095Z,9.30
2019-05-01T05:05:02.577Z,8.73
2019-05-01T05:07:33.381Z,9.50
2019-05-01T05:10:03.997Z,8.83
2019-05-01T05:13:08.954Z,10.17
2019-05-01T05:15:54.570Z,9.30
2019-05-01T05:18:25.156Z,8.67
2019-05-01T05:20:56.272Z,7.03
2019-05-01T05:23:27.488Z,8.10
2019-05-01T05:25:57.852Z,6.73
2019-05-01T05:28:31.364Z,11.93
2019-05-01T05:31:02.858Z,12.07
2019-05-01T05:33:36.004Z,7.77
2019-05-01T05:36:08.720Z,8.77
2019-05-01T05:38:57.686Z,8.60
2019-05-01T05:41:29.438Z,7.33
2019-05-01T05:44:00.312Z,7.77
2019-05-01T05:46:31.187Z,7.20
2019-05-01T05:49:01.672Z,7.03
2019-05-01T05:51:48.763Z,8.37
2019-05-01T05:54:40.578Z,8.07
2019-05-01T05:57:22.808Z,6.27
2019-05-01T05:59:57.324Z,11.10
2019-05-01T06:02:49.980Z,7.13
2019-05-01T06:05:31.272Z,7.07
2019-05-01T06:08:24.340Z,7.27
2019-05-01T06:11:12.894Z,7.63
2019-05-01T06:14:00.774Z,6.53
2019-05-01T06:16:46.864Z,7.10
2019-05-01T06:19:24.236Z,6.30
2019-05-01T06:22:11.352Z,6.77
2019-05-01T06:24:45.567Z,7.03
2019-05-01T06:27:17.042Z,5.87
2019-05-01T06:29:47.908Z,6.83
2019-05-01T06:32:18.519Z,7.00
2019-05-01T06:34:49.071Z,6.50
2019-05-01T06:37:20.826Z,7.23
2019-05-01T06:39:51.574Z,7.80
2019-05-01T06:42:22.930Z,6.83
2019-05-01T06:44:59.073Z,8.03
2019-05-01T06:47:48.358Z,7.33
2019-05-01T06:50:41.609Z,7.77
2019-05-01T06:53:10.628Z,7.70
2019-05-01T06:55:41.666Z,6.30
2019-05-01T06:58:14.790Z,7.83
2019-05-01T07:00:45.462Z,6.60
2019-05-01T07:03:16.016Z,6.83
2019-05-01T07:05:48.989Z,6.37
2019-05-01T07:08:24.761Z,6.73
2019-05-01T07:10:50.966Z,7.47
2019-05-01T07:13:21.530Z,7.13
2019-05-01T07:15:51.912Z,7.10
2019-05-01T07:18:24.206Z,6.27
2019-05-01T07:20:54.686Z,5.90
2019-05-01T07:23:26.028Z,6.92
2019-05-01T07:25:56.650Z,6.50
2019-05-01T07:28:34.052Z,6.93
2019-05-01T07:31:05.309Z,6.65
2019-05-01T07:33:37.347Z,6.58
2019-05-01T07:36:15.527Z,6.28
2019-05-01T07:38:42.763Z,6.10
2019-05-01T07:41:13.512Z,6.33
2019-05-01T07:44:03.270Z,6.97
2019-05-01T07:46:53.474Z,9.35
2019-05-01T07:49:28.249Z,7.05
2019-05-01T07:52:01.622Z,8.05
2019-05-01T07:54:31.164Z,5.75
2019-05-01T07:57:03.257Z,5.90
2019-05-01T07:59:34.358Z,6.62
2019-05-01T08:02:10.010Z,6.37
2019-05-01T08:04:40.376Z,6.40
2019-05-01T08:07:10.813Z,14.70
2019-05-01T08:09:45.876Z,5.75
2019-05-01T08:12:14.444Z,5.87
2019-05-01T08:14:47.741Z,6.50
2019-05-01T08:17:19.897Z,7.08
2019-05-01T08:20:00.922Z,6.20
2019-05-01T08:22:37.325Z,6.83
2019-05-01T08:25:07.273Z,6.40
2019-05-01T08:27:59.333Z,6.33
2019-05-01T08:30:47.926Z,6.47
2019-05-01T08:33:36.914Z,5.40
2019-05-01T08:36:11.601Z,5.75
2019-05-01T08:38:40.904Z,7.87
2019-05-01T08:41:11.307Z,7.83
2019-05-01T08:43:42.069Z,6.62
2019-05-01T08:46:32.776Z,6.83
2019-05-01T08:49:15.686Z,5.03
2019-05-01T08:51:46.335Z,7.10
2019-05-01T08:54:16.783Z,6.15
2019-05-01T08:56:47.198Z,7.33
2019-05-01T08:59:19.461Z,7.12
2019-05-01T09:01:50.656Z,6.12
2019-05-01T09:04:25.207Z,6.87
2019-05-01T09:06:53.684Z,8.98
2019-05-01T09:09:24.263Z,5.30
2019-05-01T09:11:54.838Z,6.00
2019-05-01T09:14:29.865Z,5.95
2019-05-01T09:16:58.032Z,5.35
2019-05-01T09:19:29.799Z,6.42
2019-05-01T09:22:00.253Z,5.85
2019-05-01T09:24:30.925Z,5.78
2019-05-01T09:27:18.952Z,6.53
2019-05-01T09:29:52.847Z,5.80
2019-05-01T09:32:23.472Z,5.17
2019-05-01T09:34:53.847Z,5.83
2019-05-01T09:37:24.391Z,6.58
2019-05-01T09:39:54.723Z,5.05
2019-05-01T09:42:25.395Z,7.60
2019-05-01T09:44:56.039Z,5.67
2019-05-01T09:47:27.074Z,5.90
2019-05-01T09:49:58.537Z,5.12
2019-05-01T09:52:36.640Z,5.92
2019-05-01T09:55:17.821Z,6.05
2019-05-01T09:57:49.817Z,4.70
2019-05-01T10:00:30.021Z,6.17
2019-05-01T10:03:00.435Z,5.37
2019-05-01T10:05:32.095Z,6.00
2019-05-01T10:08:04.055Z,4.70
2019-05-01T10:10:37.048Z,4.62
2019-05-01T10:13:06.891Z,5.22
2019-05-01T10:15:37.613Z,4.92
2019-05-01T10:18:08.956Z,5.00
2019-05-01T10:20:39.325Z,4.00
2019-05-01T10:23:12.949Z,4.80
2019-05-01T10:25:47.955Z,5.58
2019-05-01T10:28:25.613Z,5.33
2019-05-01T10:31:06.983Z,5.00
2019-05-01T10:33:41.761Z,6.00
2019-05-01T10:36:29.647Z,4.87
2019-05-01T10:38:59.967Z,4.92
2019-05-01T10:41:30.356Z,3.83
2019-05-01T10:44:00.755Z,4.95
2019-05-01T10:46:32.696Z,5.08
2019-05-01T10:49:03.072Z,5.20
2019-05-01T10:51:33.433Z,5.03
2019-05-01T10:54:03.774Z,5.20
2019-05-01T10:56:34.244Z,5.15
2019-05-01T10:59:04.600Z,4.55
2019-05-01T11:01:51.410Z,4.80
2019-05-01T11:04:21.802Z,4.42
2019-05-01T11:06:52.140Z,5.37
2019-05-01T11:09:22.532Z,5.75
2019-05-01T11:11:52.884Z,5.37
2019-05-01T11:14:23.253Z,6.03
2019-05-01T11:16:53.611Z,4.97
2019-05-01T11:19:23.973Z,5.05
2019-05-01T11:21:54.536Z,4.55
2019-05-01T11:24:24.923Z,4.35
2019-05-01T11:26:56.246Z,5.05
2019-05-01T11:29:26.847Z,4.25
2019-05-01T11:32:18.896Z,5.30
2019-05-01T11:34:56.706Z,5.62
2019-05-01T11:37:44.655Z,6.47
2019-05-01T11:40:31.851Z,4.47
2019-05-01T11:43:02.792Z,5.08
2019-05-01T11:45:33.410Z,5.80
2019-05-01T11:48:03.731Z,6.62
2019-05-01T11:50:34.246Z,4.37
2019-05-01T11:53:04.673Z,5.03
2019-05-01T11:55:35.159Z,6.05
2019-05-01T11:58:05.964Z,5.30
2019-05-01T12:00:36.744Z,5.33
2019-05-01T12:03:07.116Z,4.40
2019-05-01T12:05:37.884Z,4.28
2019-05-01T12:08:08.236Z,5.67
2019-05-01T12:10:38.635Z,4.47
2019-05-01T12:13:09.328Z,5.22
2019-05-01T12:15:40.127Z,3.98
2019-05-01T12:18:10.476Z,4.00
2019-05-01T12:20:41.711Z,5.30
2019-05-01T12:23:12.107Z,5.03
2019-05-01T12:25:42.434Z,5.72
2019-05-01T12:28:12.857Z,4.75
2019-05-01T12:30:43.245Z,5.50
2019-05-01T12:33:13.588Z,4.62
2019-05-01T12:35:45.557Z,4.67
2019-05-01T12:38:15.895Z,4.67
2019-05-01T12:41:05.681Z,3.67
2019-05-01T12:43:36.177Z,4.20
2019-05-01T12:46:07.096Z,4.42
2019-05-01T12:48:37.461Z,4.08
2019-05-01T12:51:08.151Z,5.10
2019-05-01T12:53:57.410Z,3.95
2019-05-01T12:56:36.076Z,5.22
2019-05-01T12:59:06.469Z,5.72
2019-05-01T13:01:36.926Z,4.67
2019-05-01T13:04:07.189Z,5.30
2019-05-01T13:06:48.900Z,6.67
2019-05-01T13:09:09.495Z,8.93
2019-05-01T13:11:39.972Z,7.80
2019-05-01T13:14:10.343Z,4.70
2019-05-01T13:16:40.852Z,4.60
2019-05-01T13:19:11.681Z,5.00
2019-05-01T13:21:42.048Z,4.53
2019-05-01T13:24:12.444Z,5.92
2019-05-01T13:26:47.951Z,9.25
2019-05-01T13:29:32.061Z,5.28
2019-05-01T13:32:08.280Z,4.70
2019-05-01T13:34:38.738Z,4.67
2019-05-01T13:37:09.104Z,4.45
2019-05-01T13:39:40.333Z,4.67
2019-05-01T13:42:10.629Z,4.47
2019-05-01T13:44:41.099Z,5.22
2019-05-01T13:47:11.496Z,4.67
2019-05-01T13:49:41.901Z,4.62
2019-05-01T13:52:12.729Z,4.83
2019-05-01T13:54:43.141Z,5.28
2019-05-01T13:57:15.045Z,6.25
2019-05-01T13:59:45.409Z,5.10
2019-05-01T14:02:15.805Z,7.65
2019-05-01T14:04:46.262Z,4.97
2019-05-01T14:07:17.146Z,12.40
2019-05-01T14:09:47.779Z,5.80
2019-05-01T14:12:18.151Z,4.30
2019-05-01T14:14:48.777Z,4.58
2019-05-01T14:17:19.177Z,4.72
2019-05-01T14:20:01.398Z,3.95
2019-05-01T14:22:44.187Z,3.35
2019-05-01T14:25:14.518Z,3.95
2019-05-01T14:27:44.903Z,3.40
2019-05-01T14:30:16.357Z,3.85
2019-05-01T14:32:46.862Z,3.27
2019-05-01T14:35:17.455Z,3.20
2019-05-01T14:37:47.826Z,4.37
2019-05-01T14:40:18.487Z,3.98
2019-05-01T14:42:48.863Z,3.72
2019-05-01T14:45:19.684Z,3.45
2019-05-01T14:47:51.812Z,3.90
2019-05-01T14:50:24.027Z,4.37
2019-05-01T14:52:54.325Z,3.60
2019-05-01T14:55:24.803Z,4.58
2019-05-01T14:57:56.221Z,4.70
2019-05-01T15:00:26.785Z,3.77
2019-05-01T15:02:57.184Z,3.92
2019-05-01T15:05:27.569Z,3.77
2019-05-01T15:07:57.985Z,3.65
2019-05-01T15:10:28.332Z,4.00
2019-05-01T15:13:00.308Z,2.87
2019-05-01T15:15:40.283Z,3.55
2019-05-01T15:18:15.583Z,3.75
2019-05-01T15:20:46.559Z,4.45
2019-05-01T15:23:17.187Z,3.90
2019-05-01T15:25:47.550Z,4.55
2019-05-01T15:28:18.130Z,4.22
2019-05-01T15:30:48.497Z,4.37
2019-05-01T15:33:18.874Z,4.22
2019-05-01T15:35:49.269Z,4.58
2019-05-01T15:38:20.011Z,4.05
2019-05-01T15:40:58.762Z,4.60
2019-05-01T15:43:31.320Z,4.03
2019-05-01T15:46:01.830Z,6.40
2019-05-01T15:48:32.233Z,4.70
2019-05-01T15:51:03.016Z,5.75
2019-05-01T15:53:33.398Z,5.90
2019-05-01T15:56:03.716Z,4.97
2019-05-01T15:58:34.088Z,4.47
2019-05-01T16:01:04.851Z,4.92
2019-05-01T16:03:35.305Z,4.65
2019-05-01T16:06:08.322Z,4.87
2019-05-01T16:08:38.261Z,4.72
2019-05-01T16:11:30.349Z,4.80
2019-05-01T16:14:01.264Z,5.20
2019-05-01T16:16:31.683Z,5.87
2019-05-01T16:19:02.101Z,5.20
2019-05-01T16:21:32.564Z,4.40
2019-05-01T16:24:02.959Z,4.53
2019-05-01T16:26:33.337Z,5.97
2019-05-01T16:29:03.711Z,4.53
2019-05-01T16:31:34.044Z,5.10
2019-05-01T16:34:04.635Z,5.27
2019-05-01T16:36:35.035Z,4.90
2019-05-01T16:39:24.980Z,4.60
2019-05-01T16:41:55.328Z,6.27
2019-05-01T16:44:25.730Z,5.43
2019-05-01T16:46:56.361Z,5.08
2019-05-01T16:49:26.689Z,6.30
2019-05-01T16:51:57.418Z,6.13
2019-05-01T16:54:27.885Z,6.57
2019-05-01T16:56:58.612Z,5.57
2019-05-01T16:59:29.506Z,5.10
2019-05-01T17:02:07.664Z,6.00
2019-05-01T17:04:56.947Z,5.93
2019-05-01T17:07:35.551Z,5.67
2019-05-01T17:10:12.447Z,6.67
2019-05-01T17:12:47.678Z,6.17
2019-05-01T17:15:25.743Z,5.67
2019-05-01T17:17:56.089Z,8.10
2019-05-01T17:20:27.223Z,6.90
2019-05-01T17:22:59.171Z,5.87
2019-05-01T17:25:29.665Z,7.77
2019-05-01T17:28:02.917Z,6.00
2019-05-01T17:31:01.567Z,7.47
2019-05-01T17:33:32.431Z,6.07
2019-05-01T17:36:02.826Z,6.40
2019-05-01T17:38:33.239Z,7.40
2019-05-01T17:41:03.948Z,7.03
2019-05-01T17:43:34.520Z,6.17
2019-05-01T17:46:05.858Z,6.37
2019-05-01T17:48:37.286Z,5.50
2019-05-01T17:51:07.673Z,6.47
2019-05-01T17:53:38.182Z,7.33
2019-05-01T17:56:10.216Z,7.00
2019-05-01T17:58:40.921Z,6.43
2019-05-01T18:01:33.021Z,7.90
2019-05-01T18:04:31.957Z,12.30
2019-05-01T18:07:02.365Z,12.73
2019-05-01T18:09:33.977Z,6.80
2019-05-01T18:12:04.675Z,6.73
2019-05-01T18:14:35.007Z,5.57
2019-05-01T18:17:05.785Z,7.07
2019-05-01T18:19:36.150Z,6.87
2019-05-01T18:22:13.833Z,6.60
2019-05-01T18:25:33.182Z,6.97
2019-05-01T18:28:09.380Z,6.00
2019-05-01T18:30:41.910Z,7.63
2019-05-01T18:33:12.366Z,7.03
2019-05-01T18:35:44.920Z,8.37
2019-05-01T18:38:29.922Z,8.87
2019-05-01T18:41:06.587Z,8.90
2019-05-01T18:43:36.956Z,9.17
2019-05-01T18:46:09.426Z,8.83
2019-05-01T18:48:39.847Z,8.07
2019-05-01T18:51:10.430Z,9.93
2019-05-01T18:53:41.313Z,10.70
2019-05-01T18:56:11.735Z,9.17
2019-05-01T18:58:42.099Z,9.00
2019-05-01T19:01:12.504Z,7.63
2019-05-01T19:03:44.183Z,7.83
2019-05-01T19:06:15.162Z,7.40
2019-05-01T19:08:45.517Z,7.37
2019-05-01T19:11:16.562Z,10.80
2019-05-01T19:13:47.221Z,9.00
2019-05-01T19:16:17.663Z,7.53
2019-05-01T19:18:48.092Z,7.33
2019-05-01T19:21:20.014Z,8.27
2019-05-01T19:23:50.645Z,8.07
2019-05-01T19:26:21.568Z,7.73
2019-05-01T19:28:51.902Z,7.63
2019-05-01T19:31:22.299Z,7.70
2019-05-01T19:33:52.662Z,7.40
2019-05-01T19:36:24.462Z,7.87
2019-05-01T19:38:54.960Z,8.17
2019-05-01T19:41:25.597Z,7.43
2019-05-01T19:43:56.073Z,7.73
2019-05-01T19:46:26.438Z,8.37
2019-05-01T19:48:56.912Z,7.87
2019-05-01T19:51:27.352Z,7.83
2019-05-01T19:53:58.167Z,7.63
2019-05-01T19:56:28.588Z,8.90
2019-05-01T19:58:59.176Z,8.43
2019-05-01T20:01:29.844Z,8.17
2019-05-01T20:04:00.686Z,9.70
2019-05-01T20:06:31.411Z,9.47
2019-05-01T20:09:02.079Z,9.40
2019-05-01T20:11:34.114Z,8.50
2019-05-01T20:14:06.203Z,9.53
2019-05-01T20:16:36.739Z,8.83
2019-05-01T20:19:07.076Z,9.33
2019-05-01T20:21:37.408Z,9.23
2019-05-01T20:24:09.334Z,11.93
2019-05-01T20:26:40.059Z,9.13
2019-05-01T20:29:10.436Z,8.47
2019-05-01T20:31:40.910Z,8.60
2019-05-01T20:34:12.094Z,8.03
2019-05-01T20:36:43.630Z,8.33
2019-05-01T20:39:14.189Z,8.30
2019-05-01T20:41:45.407Z,7.43
2019-05-01T20:44:23.369Z,8.10
2019-05-01T20:46:47.758Z,7.67
2019-05-01T20:49:19.417Z,8.13
2019-05-01T20:51:49.928Z,8.70
2019-05-01T20:54:20.274Z,8.13
2019-05-01T20:56:56.301Z,8.20
2019-05-01T20:59:26.746Z,6.97
2019-05-01T21:01:59.719Z,7.70
2019-05-01T21:04:42.688Z,7.23
2019-05-01T21:07:19.909Z,7.13
2019-05-01T21:09:56.960Z,7.37
2019-05-01T21:12:20.921Z,6.80
2019-05-01T21:14:51.403Z,6.17
2019-05-01T21:17:21.883Z,6.33
2019-05-01T21:19:54.335Z,7.33
2019-05-01T21:22:24.164Z,7.27
2019-05-01T21:24:54.526Z,7.20
2019-05-01T21:27:24.925Z,5.77
2019-05-01T21:29:55.288Z,6.37
2019-05-01T21:32:27.398Z,6.37
2019-05-01T21:34:57.768Z,26.93
2019-05-01T21:37:28.124Z,6.70
2019-05-01T21:39:58.463Z,6.93
2019-05-01T21:42:28.815Z,6.27
2019-05-01T21:44:59.208Z,6.63
2019-05-01T21:47:29.868Z,6.87
2019-05-01T21:50:00.240Z,7.33
2019-05-01T21:52:30.629Z,7.27
2019-05-01T21:55:00.969Z,6.60
2019-05-01T21:57:33.188Z,6.70
2019-05-01T22:00:05.549Z,5.97
2019-05-01T22:02:37.107Z,6.30
2019-05-01T22:05:07.775Z,6.47
2019-05-01T22:07:38.162Z,5.30
2019-05-01T22:10:08.826Z,5.20
2019-05-01T22:12:44.094Z,7.00
2019-05-01T22:15:26.196Z,7.27
2019-05-01T22:18:17.208Z,7.07
2019-05-01T22:20:53.085Z,7.03
2019-05-01T22:23:24.432Z,23.03
2019-05-01T22:25:57.811Z,8.03
2019-05-01T22:28:50.285Z,10.33
2019-05-01T22:31:38.063Z,6.80
2019-05-01T22:34:19.932Z,6.87
2019-05-01T22:36:50.716Z,8.70
2019-05-01T22:39:22.686Z,12.67
2019-05-01T22:41:53.134Z,9.30
2019-05-01T22:44:23.459Z,8.37
2019-05-01T22:46:53.892Z,9.23
2019-05-01T22:49:24.282Z,13.53
2019-05-01T22:51:54.700Z,8.13
2019-05-01T22:54:25.089Z,8.47
2019-05-01T22:56:55.541Z,8.57
2019-05-01T22:59:25.921Z,8.57
2019-05-01T23:02:00.393Z,8.93
2019-05-01T23:04:30.840Z,8.80
2019-05-01T23:07:01.231Z,9.13
2019-05-01T23:09:32.332Z,9.77
2019-05-01T23:12:02.656Z,10.27
2019-05-01T23:14:32.983Z,9.77
2019-05-01T23:17:21.293Z,12.07
2019-05-01T23:19:51.600Z,11.53
2019-05-01T23:22:23.530Z,11.57
2019-05-01T23:24:53.867Z,11.07
2019-05-01T23:27:29.114Z,12.80
2019-05-01T23:29:56.546Z,12.57
2019-05-01T23:32:26.956Z,13.47
2019-05-01T23:34:57.868Z,12.90
2019-05-01T23:37:28.204Z,12.70
2019-05-01T23:39:58.599Z,13.20
2019-05-01T23:42:28.865Z,13.00
2019-05-01T23:44:59.282Z,12.57
2019-05-01T23:47:29.648Z,14.00
2019-05-01T23:50:00.018Z,14.20
2019-05-01T23:52:34.024Z,13.60
2019-05-01T23:55:02.350Z,13.27
2019-05-01T23:57:32.699Z,14.00
